sensor_id;sensor_type;location;lat;lon;timestamp;temperature;humidity
20732;DHT22;10527;52.124;5.196;2023-02-18T00:01:45;10.50;99.90
20732;DHT22;10527;52.124;5.196;2023-02-18T00:04:12;10.50;99.90
20732;DHT22;10527;52.124;5.196;2023-02-18T00:06:42;10.50;99.90
20732;DHT22;10527;52.124;5.196;2023-02-18T00:09:12;10.50;99.90
20732;DHT22;10527;52.124;5.196;2023-02-18T00:11:39;10.40;99.90
20732;DHT22;10527;52.124;5.196;2023-02-18T00:14:10;10.40;99.90
20732;DHT22;10527;52.124;5.196;2023-02-18T00:16:41;10.40;99.90
20732;DHT22;10527;52.124;5.196;2023-02-18T00:19:16;10.40;99.90
20732;DHT22;10527;52.124;5.196;2023-02-18T00:21:44;10.40;99.90
20732;DHT22;10527;52.124;5.196;2023-02-18T00:24:13;10.40;99.90
20732;DHT22;10527;52.124;5.196;2023-02-18T00:26:42;10.30;99.90
20732;DHT22;10527;52.124;5.196;2023-02-18T00:29:09;10.30;99.90
20732;DHT22;10527;52.124;5.196;2023-02-18T00:31:37;10.30;99.90
20732;DHT22;10527;52.124;5.196;2023-02-18T00:34:05;10.20;99.90
20732;DHT22;10527;52.124;5.196;2023-02-18T00:36:32;10.20;99.90
20732;DHT22;10527;52.124;5.196;2023-02-18T00:39:01;10.10;99.90
20732;DHT22;10527;52.124;5.196;2023-02-18T00:41:31;10.10;99.90
20732;DHT22;10527;52.124;5.196;2023-02-18T00:44:01;10.10;99.90
20732;DHT22;10527;52.124;5.196;2023-02-18T00:46:28;10.10;99.90
20732;DHT22;10527;52.124;5.196;2023-02-18T00:48:55;10.10;99.90
20732;DHT22;10527;52.124;5.196;2023-02-18T00:51:22;10.10;99.90
20732;DHT22;10527;52.124;5.196;2023-02-18T00:53:51;10.00;99.90
20732;DHT22;10527;52.124;5.196;2023-02-18T00:56:18;10.00;99.90
20732;DHT22;10527;52.124;5.196;2023-02-18T00:58:46;10.00;99.90
20732;DHT22;10527;52.124;5.196;2023-02-18T01:01:13;10.00;99.90
20732;DHT22;10527;52.124;5.196;2023-02-18T01:03:41;9.90;99.90
20732;DHT22;10527;52.124;5.196;2023-02-18T01:06:09;9.90;99.90
20732;DHT22;10527;52.124;5.196;2023-02-18T01:08:38;9.80;99.90
20732;DHT22;10527;52.124;5.196;2023-02-18T01:11:07;9.70;99.90
20732;DHT22;10527;52.124;5.196;2023-02-18T01:13:36;9.70;99.90
20732;DHT22;10527;52.124;5.196;2023-02-18T01:16:03;9.70;99.90
20732;DHT22;10527;52.124;5.196;2023-02-18T01:18:30;9.60;99.90
20732;DHT22;10527;52.124;5.196;2023-02-18T01:21:00;9.60;99.90
20732;DHT22;10527;52.124;5.196;2023-02-18T01:23:27;9.60;99.90
20732;DHT22;10527;52.124;5.196;2023-02-18T01:25:54;9.60;99.90
20732;DHT22;10527;52.124;5.196;2023-02-18T01:28:23;9.70;99.90
20732;DHT22;10527;52.124;5.196;2023-02-18T01:30:53;9.60;99.90
20732;DHT22;10527;52.124;5.196;2023-02-18T01:33:22;9.60;99.90
20732;DHT22;10527;52.124;5.196;2023-02-18T01:35:51;9.60;99.90
20732;DHT22;10527;52.124;5.196;2023-02-18T01:38:18;9.60;99.90
20732;DHT22;10527;52.124;5.196;2023-02-18T01:40:48;9.50;99.90
20732;DHT22;10527;52.124;5.196;2023-02-18T01:43:18;9.60;99.90
20732;DHT22;10527;52.124;5.196;2023-02-18T01:46:09;9.60;99.90
20732;DHT22;10527;52.124;5.196;2023-02-18T01:48:55;9.50;99.90
20732;DHT22;10527;52.124;5.196;2023-02-18T01:51:26;9.50;99.90
20732;DHT22;10527;52.124;5.196;2023-02-18T01:54:14;9.60;99.90
20732;DHT22;10527;52.124;5.196;2023-02-18T01:56:49;9.60;99.90
20732;DHT22;10527;52.124;5.196;2023-02-18T01:59:24;9.60;99.90
20732;DHT22;10527;52.124;5.196;2023-02-18T02:01:57;9.60;99.90
20732;DHT22;10527;52.124;5.196;2023-02-18T02:04:25;9.60;99.90
20732;DHT22;10527;52.124;5.196;2023-02-18T02:06:52;9.60;99.90
20732;DHT22;10527;52.124;5.196;2023-02-18T02:09:21;9.50;99.90
20732;DHT22;10527;52.124;5.196;2023-02-18T02:32:44;9.60;99.90
20732;DHT22;10527;52.124;5.196;2023-02-18T02:35:36;9.70;99.90
20732;DHT22;10527;52.124;5.196;2023-02-18T02:41:43;9.60;99.90
20732;DHT22;10527;52.124;5.196;2023-02-18T02:44:21;9.70;99.90
20732;DHT22;10527;52.124;5.196;2023-02-18T02:47:19;9.60;99.90
20732;DHT22;10527;52.124;5.196;2023-02-18T02:53:14;9.70;99.90
20732;DHT22;10527;52.124;5.196;2023-02-18T02:55:54;9.70;99.90
20732;DHT22;10527;52.124;5.196;2023-02-18T02:58:24;9.70;99.90
20732;DHT22;10527;52.124;5.196;2023-02-18T03:01:05;9.70;99.90
20732;DHT22;10527;52.124;5.196;2023-02-18T03:09:16;9.80;99.90
20732;DHT22;10527;52.124;5.196;2023-02-18T03:12:26;9.80;99.90
20732;DHT22;10527;52.124;5.196;2023-02-18T03:15:22;9.80;99.90
20732;DHT22;10527;52.124;5.196;2023-02-18T03:21:09;9.80;99.90
20732;DHT22;10527;52.124;5.196;2023-02-18T03:24:06;9.80;99.90
20732;DHT22;10527;52.124;5.196;2023-02-18T03:26:46;9.90;99.90
20732;DHT22;10527;52.124;5.196;2023-02-18T03:29:18;9.90;99.90
20732;DHT22;10527;52.124;5.196;2023-02-18T03:31:53;9.90;99.90
20732;DHT22;10527;52.124;5.196;2023-02-18T03:34:27;9.90;99.90
20732;DHT22;10527;52.124;5.196;2023-02-18T03:37:00;9.90;99.90
20732;DHT22;10527;52.124;5.196;2023-02-18T03:39:33;9.90;99.90
20732;DHT22;10527;52.124;5.196;2023-02-18T03:42:01;9.80;99.90
20732;DHT22;10527;52.124;5.196;2023-02-18T03:44:29;9.80;99.90
20732;DHT22;10527;52.124;5.196;2023-02-18T03:46:56;9.80;99.90
20732;DHT22;10527;52.124;5.196;2023-02-18T03:49:23;9.90;99.90
20732;DHT22;10527;52.124;5.196;2023-02-18T03:51:51;9.90;99.90
20732;DHT22;10527;52.124;5.196;2023-02-18T03:54:18;9.90;99.90
20732;DHT22;10527;52.124;5.196;2023-02-18T03:56:45;9.90;99.90
20732;DHT22;10527;52.124;5.196;2023-02-18T03:59:12;9.90;99.90
20732;DHT22;10527;52.124;5.196;2023-02-18T04:01:39;9.90;99.90
20732;DHT22;10527;52.124;5.196;2023-02-18T04:04:06;9.90;99.90
20732;DHT22;10527;52.124;5.196;2023-02-18T04:06:38;9.90;99.90
20732;DHT22;10527;52.124;5.196;2023-02-18T04:09:05;10.00;99.90
20732;DHT22;10527;52.124;5.196;2023-02-18T04:11:38;10.00;99.90
20732;DHT22;10527;52.124;5.196;2023-02-18T04:14:13;10.10;99.90
20732;DHT22;10527;52.124;5.196;2023-02-18T04:16:43;10.10;99.90
20732;DHT22;10527;52.124;5.196;2023-02-18T04:19:10;10.10;99.90
20732;DHT22;10527;52.124;5.196;2023-02-18T04:21:37;10.00;99.90
20732;DHT22;10527;52.124;5.196;2023-02-18T04:24:03;10.10;99.90
20732;DHT22;10527;52.124;5.196;2023-02-18T04:26:30;10.10;99.90
20732;DHT22;10527;52.124;5.196;2023-02-18T04:28:57;10.10;99.90
20732;DHT22;10527;52.124;5.196;2023-02-18T04:31:27;10.10;99.90
20732;DHT22;10527;52.124;5.196;2023-02-18T04:33:57;10.10;99.90
20732;DHT22;10527;52.124;5.196;2023-02-18T04:36:23;10.10;99.90
20732;DHT22;10527;52.124;5.196;2023-02-18T04:38:53;10.10;99.90
20732;DHT22;10527;52.124;5.196;2023-02-18T04:41:20;10.10;99.90
20732;DHT22;10527;52.124;5.196;2023-02-18T04:43:47;10.10;99.90
20732;DHT22;10527;52.124;5.196;2023-02-18T04:46:13;10.10;99.90
20732;DHT22;10527;52.124;5.196;2023-02-18T04:48:40;10.00;99.90
20732;DHT22;10527;52.124;5.196;2023-02-18T04:51:07;10.10;99.90
20732;DHT22;10527;52.124;5.196;2023-02-18T04:53:34;10.00;99.90
20732;DHT22;10527;52.124;5.196;2023-02-18T04:56:04;10.00;99.90
20732;DHT22;10527;52.124;5.196;2023-02-18T04:58:34;10.00;99.90
20732;DHT22;10527;52.124;5.196;2023-02-18T05:01:02;10.00;99.90
20732;DHT22;10527;52.124;5.196;2023-02-18T05:03:30;10.00;99.90
20732;DHT22;10527;52.124;5.196;2023-02-18T05:05:58;10.00;99.90
20732;DHT22;10527;52.124;5.196;2023-02-18T05:08:25;10.00;99.90
20732;DHT22;10527;52.124;5.196;2023-02-18T05:10:55;10.00;99.90
20732;DHT22;10527;52.124;5.196;2023-02-18T05:13:23;10.00;99.90
20732;DHT22;10527;52.124;5.196;2023-02-18T05:15:51;10.00;99.90
20732;DHT22;10527;52.124;5.196;2023-02-18T05:18:18;10.00;99.90
20732;DHT22;10527;52.124;5.196;2023-02-18T05:20:45;10.00;99.90
20732;DHT22;10527;52.124;5.196;2023-02-18T05:23:17;10.00;99.90
20732;DHT22;10527;52.124;5.196;2023-02-18T05:25:47;9.90;99.90
20732;DHT22;10527;52.124;5.196;2023-02-18T05:28:14;9.90;99.90
20732;DHT22;10527;52.124;5.196;2023-02-18T05:30:41;10.00;99.90
20732;DHT22;10527;52.124;5.196;2023-02-18T05:33:08;10.00;99.90
20732;DHT22;10527;52.124;5.196;2023-02-18T05:35:35;10.00;99.90
20732;DHT22;10527;52.124;5.196;2023-02-18T05:38:02;10.10;99.90
20732;DHT22;10527;52.124;5.196;2023-02-18T05:40:31;10.00;99.90
20732;DHT22;10527;52.124;5.196;2023-02-18T05:42:58;10.10;99.90
20732;DHT22;10527;52.124;5.196;2023-02-18T05:45:25;10.10;99.90
20732;DHT22;10527;52.124;5.196;2023-02-18T05:47:51;10.00;99.90
20732;DHT22;10527;52.124;5.196;2023-02-18T05:50:18;10.10;99.90
20732;DHT22;10527;52.124;5.196;2023-02-18T05:52:45;10.10;99.90
20732;DHT22;10527;52.124;5.196;2023-02-18T05:55:12;10.10;99.90
20732;DHT22;10527;52.124;5.196;2023-02-18T05:57:39;10.10;99.90
20732;DHT22;10527;52.124;5.196;2023-02-18T06:00:07;10.10;99.90
20732;DHT22;10527;52.124;5.196;2023-02-18T06:02:38;10.10;99.90
20732;DHT22;10527;52.124;5.196;2023-02-18T06:05:06;10.10;99.90
20732;DHT22;10527;52.124;5.196;2023-02-18T06:07:33;10.10;99.90
20732;DHT22;10527;52.124;5.196;2023-02-18T06:10:04;10.10;99.90
20732;DHT22;10527;52.124;5.196;2023-02-18T06:12:32;10.10;99.90
20732;DHT22;10527;52.124;5.196;2023-02-18T06:15:01;10.20;99.90
20732;DHT22;10527;52.124;5.196;2023-02-18T06:17:31;10.20;99.90
20732;DHT22;10527;52.124;5.196;2023-02-18T06:19:58;10.20;99.90
20732;DHT22;10527;52.124;5.196;2023-02-18T06:22:25;10.20;99.90
20732;DHT22;10527;52.124;5.196;2023-02-18T06:24:52;10.20;99.90
20732;DHT22;10527;52.124;5.196;2023-02-18T06:27:19;10.30;99.90
20732;DHT22;10527;52.124;5.196;2023-02-18T06:29:47;10.20;99.90
20732;DHT22;10527;52.124;5.196;2023-02-18T06:32:13;10.30;99.90
20732;DHT22;10527;52.124;5.196;2023-02-18T06:34:40;10.30;99.90
20732;DHT22;10527;52.124;5.196;2023-02-18T06:37:07;10.30;99.90
20732;DHT22;10527;52.124;5.196;2023-02-18T06:39:34;10.20;99.90
20732;DHT22;10527;52.124;5.196;2023-02-18T06:42:01;10.30;99.90
20732;DHT22;10527;52.124;5.196;2023-02-18T06:44:28;10.20;99.90
20732;DHT22;10527;52.124;5.196;2023-02-18T06:46:54;10.20;99.90
20732;DHT22;10527;52.124;5.196;2023-02-18T06:49:21;10.20;99.90
20732;DHT22;10527;52.124;5.196;2023-02-18T06:51:48;10.20;99.90
20732;DHT22;10527;52.124;5.196;2023-02-18T06:54:18;10.20;99.90
20732;DHT22;10527;52.124;5.196;2023-02-18T06:56:44;10.20;99.90
20732;DHT22;10527;52.124;5.196;2023-02-18T06:59:11;10.10;99.90
20732;DHT22;10527;52.124;5.196;2023-02-18T07:01:39;10.10;99.90
20732;DHT22;10527;52.124;5.196;2023-02-18T07:04:06;10.10;99.90
20732;DHT22;10527;52.124;5.196;2023-02-18T07:06:33;10.10;99.90
20732;DHT22;10527;52.124;5.196;2023-02-18T07:08:59;10.10;99.90
20732;DHT22;10527;52.124;5.196;2023-02-18T07:11:26;10.10;99.90
20732;DHT22;10527;52.124;5.196;2023-02-18T07:13:53;10.10;99.90
20732;DHT22;10527;52.124;5.196;2023-02-18T07:16:20;10.20;99.90
20732;DHT22;10527;52.124;5.196;2023-02-18T07:18:47;10.20;99.90
20732;DHT22;10527;52.124;5.196;2023-02-18T07:21:14;10.20;99.90
20732;DHT22;10527;52.124;5.196;2023-02-18T07:23:41;10.20;99.90
20732;DHT22;10527;52.124;5.196;2023-02-18T07:26:13;10.20;99.90
20732;DHT22;10527;52.124;5.196;2023-02-18T07:28:41;10.10;99.90
20732;DHT22;10527;52.124;5.196;2023-02-18T07:31:08;10.10;99.90
20732;DHT22;10527;52.124;5.196;2023-02-18T07:33:35;10.20;99.90
20732;DHT22;10527;52.124;5.196;2023-02-18T07:36:12;10.10;99.90
20732;DHT22;10527;52.124;5.196;2023-02-18T07:38:38;10.20;99.90
20732;DHT22;10527;52.124;5.196;2023-02-18T07:41:19;10.10;99.90
20732;DHT22;10527;52.124;5.196;2023-02-18T07:43:47;10.10;99.90
20732;DHT22;10527;52.124;5.196;2023-02-18T07:46:15;10.10;99.90
20732;DHT22;10527;52.124;5.196;2023-02-18T07:48:42;10.20;99.90
20732;DHT22;10527;52.124;5.196;2023-02-18T07:51:11;10.20;99.90
20732;DHT22;10527;52.124;5.196;2023-02-18T07:53:39;10.10;99.90
20732;DHT22;10527;52.124;5.196;2023-02-18T07:56:06;10.10;99.90
20732;DHT22;10527;52.124;5.196;2023-02-18T07:58:36;10.10;99.90
20732;DHT22;10527;52.124;5.196;2023-02-18T08:01:14;10.10;99.90
20732;DHT22;10527;52.124;5.196;2023-02-18T08:03:41;10.10;99.90
20732;DHT22;10527;52.124;5.196;2023-02-18T08:06:20;10.00;99.90
20732;DHT22;10527;52.124;5.196;2023-02-18T08:08:50;10.10;99.90
20732;DHT22;10527;52.124;5.196;2023-02-18T08:11:17;10.10;99.90
20732;DHT22;10527;52.124;5.196;2023-02-18T08:13:46;10.00;99.90
20732;DHT22;10527;52.124;5.196;2023-02-18T08:16:15;10.10;99.90
20732;DHT22;10527;52.124;5.196;2023-02-18T08:18:44;10.00;99.90
20732;DHT22;10527;52.124;5.196;2023-02-18T08:21:14;10.00;99.90
20732;DHT22;10527;52.124;5.196;2023-02-18T08:23:42;10.00;99.90
20732;DHT22;10527;52.124;5.196;2023-02-18T08:26:10;9.90;99.90
20732;DHT22;10527;52.124;5.196;2023-02-18T08:28:38;9.80;99.90
20732;DHT22;10527;52.124;5.196;2023-02-18T08:31:05;9.90;99.90
20732;DHT22;10527;52.124;5.196;2023-02-18T08:33:32;9.80;99.90
20732;DHT22;10527;52.124;5.196;2023-02-18T08:36:01;9.80;99.90
20732;DHT22;10527;52.124;5.196;2023-02-18T08:38:33;9.80;99.90
20732;DHT22;10527;52.124;5.196;2023-02-18T08:41:05;9.80;99.90
20732;DHT22;10527;52.124;5.196;2023-02-18T08:43:33;9.80;99.90
20732;DHT22;10527;52.124;5.196;2023-02-18T08:46:02;9.80;99.90
20732;DHT22;10527;52.124;5.196;2023-02-18T08:48:31;9.80;99.90
20732;DHT22;10527;52.124;5.196;2023-02-18T08:51:19;9.80;99.90
20732;DHT22;10527;52.124;5.196;2023-02-18T08:53:48;9.80;99.90
20732;DHT22;10527;52.124;5.196;2023-02-18T08:56:15;9.90;99.90
20732;DHT22;10527;52.124;5.196;2023-02-18T08:58:45;9.90;99.90
20732;DHT22;10527;52.124;5.196;2023-02-18T09:01:15;9.90;99.90
20732;DHT22;10527;52.124;5.196;2023-02-18T09:03:42;9.90;99.90
20732;DHT22;10527;52.124;5.196;2023-02-18T09:06:10;9.90;99.90
20732;DHT22;10527;52.124;5.196;2023-02-18T09:08:37;9.90;99.90
20732;DHT22;10527;52.124;5.196;2023-02-18T09:11:04;9.90;99.90
20732;DHT22;10527;52.124;5.196;2023-02-18T09:13:34;9.90;99.90
20732;DHT22;10527;52.124;5.196;2023-02-18T09:16:04;10.00;99.90
20732;DHT22;10527;52.124;5.196;2023-02-18T09:18:34;10.00;99.90
20732;DHT22;10527;52.124;5.196;2023-02-18T09:21:04;10.00;99.90
20732;DHT22;10527;52.124;5.196;2023-02-18T09:23:33;9.90;99.90
20732;DHT22;10527;52.124;5.196;2023-02-18T09:26:03;9.90;99.90
20732;DHT22;10527;52.124;5.196;2023-02-18T09:28:33;10.00;99.90
20732;DHT22;10527;52.124;5.196;2023-02-18T09:31:04;10.00;99.90
20732;DHT22;10527;52.124;5.196;2023-02-18T09:33:35;10.00;99.90
20732;DHT22;10527;52.124;5.196;2023-02-18T09:36:02;10.10;99.90
20732;DHT22;10527;52.124;5.196;2023-02-18T09:38:29;10.10;99.90
20732;DHT22;10527;52.124;5.196;2023-02-18T09:41:01;10.10;99.90
20732;DHT22;10527;52.124;5.196;2023-02-18T09:43:58;10.20;99.90
20732;DHT22;10527;52.124;5.196;2023-02-18T09:46:49;10.20;99.90
20732;DHT22;10527;52.124;5.196;2023-02-18T09:49:22;10.20;99.90
20732;DHT22;10527;52.124;5.196;2023-02-18T09:51:53;10.30;99.90
20732;DHT22;10527;52.124;5.196;2023-02-18T09:54:22;10.30;99.90
20732;DHT22;10527;52.124;5.196;2023-02-18T09:56:49;10.30;99.90
20732;DHT22;10527;52.124;5.196;2023-02-18T09:59:21;10.30;99.90
20732;DHT22;10527;52.124;5.196;2023-02-18T10:01:51;10.40;99.90
20732;DHT22;10527;52.124;5.196;2023-02-18T10:04:29;10.30;99.90
20732;DHT22;10527;52.124;5.196;2023-02-18T10:07:03;10.40;99.90
20732;DHT22;10527;52.124;5.196;2023-02-18T10:09:36;10.40;99.90
20732;DHT22;10527;52.124;5.196;2023-02-18T10:12:15;10.50;99.90
20732;DHT22;10527;52.124;5.196;2023-02-18T10:14:55;10.50;99.90
20732;DHT22;10527;52.124;5.196;2023-02-18T10:17:30;10.40;99.90
20732;DHT22;10527;52.124;5.196;2023-02-18T10:19:59;10.50;99.90
20732;DHT22;10527;52.124;5.196;2023-02-18T10:22:30;10.50;99.90
20732;DHT22;10527;52.124;5.196;2023-02-18T10:25:02;10.50;99.90
20732;DHT22;10527;52.124;5.196;2023-02-18T10:27:35;10.50;99.90
20732;DHT22;10527;52.124;5.196;2023-02-18T10:30:30;10.50;99.90
20732;DHT22;10527;52.124;5.196;2023-02-18T10:33:35;10.60;99.90
20732;DHT22;10527;52.124;5.196;2023-02-18T10:36:24;10.60;99.90
20732;DHT22;10527;52.124;5.196;2023-02-18T10:44:53;10.80;99.90
20732;DHT22;10527;52.124;5.196;2023-02-18T10:50:27;10.80;99.90
20732;DHT22;10527;52.124;5.196;2023-02-18T10:55:52;10.90;99.90
20732;DHT22;10527;52.124;5.196;2023-02-18T10:58:31;10.90;99.90
20732;DHT22;10527;52.124;5.196;2023-02-18T11:01:21;10.90;99.90
20732;DHT22;10527;52.124;5.196;2023-02-18T11:03:51;10.90;99.90
20732;DHT22;10527;52.124;5.196;2023-02-18T11:09:05;11.00;99.90
20732;DHT22;10527;52.124;5.196;2023-02-18T11:11:36;11.00;99.90
20732;DHT22;10527;52.124;5.196;2023-02-18T11:14:06;11.00;99.90
20732;DHT22;10527;52.124;5.196;2023-02-18T11:16:39;11.00;99.90
20732;DHT22;10527;52.124;5.196;2023-02-18T11:19:30;11.00;99.90
20732;DHT22;10527;52.124;5.196;2023-02-18T11:24:37;11.00;99.90
20732;DHT22;10527;52.124;5.196;2023-02-18T11:27:09;11.10;99.90
20732;DHT22;10527;52.124;5.196;2023-02-18T11:29:40;11.10;99.90
20732;DHT22;10527;52.124;5.196;2023-02-18T11:32:10;11.10;99.90
20732;DHT22;10527;52.124;5.196;2023-02-18T11:34:41;11.10;99.90
20732;DHT22;10527;52.124;5.196;2023-02-18T11:37:12;11.10;99.90
20732;DHT22;10527;52.124;5.196;2023-02-18T11:39:47;11.10;99.90
20732;DHT22;10527;52.124;5.196;2023-02-18T11:42:20;11.10;99.90
20732;DHT22;10527;52.124;5.196;2023-02-18T11:44:56;11.10;99.90
20732;DHT22;10527;52.124;5.196;2023-02-18T11:47:35;11.10;99.90
20732;DHT22;10527;52.124;5.196;2023-02-18T11:52:38;11.10;99.90
20732;DHT22;10527;52.124;5.196;2023-02-18T11:55:17;11.10;99.90
20732;DHT22;10527;52.124;5.196;2023-02-18T11:57:55;11.10;99.90
20732;DHT22;10527;52.124;5.196;2023-02-18T12:00:38;11.10;99.90
20732;DHT22;10527;52.124;5.196;2023-02-18T12:03:17;11.20;99.90
20732;DHT22;10527;52.124;5.196;2023-02-18T12:06:13;11.30;99.90
20732;DHT22;10527;52.124;5.196;2023-02-18T12:09:05;11.30;99.90
20732;DHT22;10527;52.124;5.196;2023-02-18T12:11:55;11.30;99.90
20732;DHT22;10527;52.124;5.196;2023-02-18T12:14:26;11.20;99.90
20732;DHT22;10527;52.124;5.196;2023-02-18T12:20:25;11.20;99.90
20732;DHT22;10527;52.124;5.196;2023-02-18T12:25:57;11.30;99.90
20732;DHT22;10527;52.124;5.196;2023-02-18T12:50:10;11.80;99.90
20732;DHT22;10527;52.124;5.196;2023-02-18T13:04:57;11.80;99.90
20732;DHT22;10527;52.124;5.196;2023-02-18T13:08:17;11.90;99.90
20732;DHT22;10527;52.124;5.196;2023-02-18T13:11:03;11.80;99.90
20732;DHT22;10527;52.124;5.196;2023-02-18T13:16:41;12.00;99.90
20732;DHT22;10527;52.124;5.196;2023-02-18T13:21:55;11.90;99.90
20732;DHT22;10527;52.124;5.196;2023-02-18T13:27:28;11.90;99.90
20732;DHT22;10527;52.124;5.196;2023-02-18T13:36:25;12.10;99.90
20732;DHT22;10527;52.124;5.196;2023-02-18T13:41:27;12.10;99.90
20732;DHT22;10527;52.124;5.196;2023-02-18T13:43:54;12.10;99.90
20732;DHT22;10527;52.124;5.196;2023-02-18T13:46:23;12.10;99.90
20732;DHT22;10527;52.124;5.196;2023-02-18T13:51:40;12.10;99.90
20732;DHT22;10527;52.124;5.196;2023-02-18T13:54:28;12.10;99.90
20732;DHT22;10527;52.124;5.196;2023-02-18T13:57:06;12.20;99.90
20732;DHT22;10527;52.124;5.196;2023-02-18T14:00:13;12.20;99.90
20732;DHT22;10527;52.124;5.196;2023-02-18T14:06:15;12.20;99.90
20732;DHT22;10527;52.124;5.196;2023-02-18T14:08:45;12.20;99.90
20732;DHT22;10527;52.124;5.196;2023-02-18T14:13:49;12.20;99.90
20732;DHT22;10527;52.124;5.196;2023-02-18T14:16:26;12.20;99.90
20732;DHT22;10527;52.124;5.196;2023-02-18T14:19:42;12.30;99.90
20732;DHT22;10527;52.124;5.196;2023-02-18T14:25:24;12.30;99.90
20732;DHT22;10527;52.124;5.196;2023-02-18T14:28:03;12.40;99.90
20732;DHT22;10527;52.124;5.196;2023-02-18T14:30:50;12.30;99.90
20732;DHT22;10527;52.124;5.196;2023-02-18T14:33:18;12.40;99.90
20732;DHT22;10527;52.124;5.196;2023-02-18T14:35:57;12.40;99.90
20732;DHT22;10527;52.124;5.196;2023-02-18T14:48:05;12.30;99.90
20732;DHT22;10527;52.124;5.196;2023-02-18T14:50:52;12.40;99.90
20732;DHT22;10527;52.124;5.196;2023-02-18T14:53:25;12.40;99.90
20732;DHT22;10527;52.124;5.196;2023-02-18T14:56:03;12.30;99.90
20732;DHT22;10527;52.124;5.196;2023-02-18T14:58:40;12.40;99.90
20732;DHT22;10527;52.124;5.196;2023-02-18T15:01:23;12.30;99.90
20732;DHT22;10527;52.124;5.196;2023-02-18T15:04:02;12.30;99.90
20732;DHT22;10527;52.124;5.196;2023-02-18T15:06:31;12.30;99.90
20732;DHT22;10527;52.124;5.196;2023-02-18T15:09:02;12.30;99.90
20732;DHT22;10527;52.124;5.196;2023-02-18T15:11:45;12.30;99.90
20732;DHT22;10527;52.124;5.196;2023-02-18T15:14:19;12.30;99.90
20732;DHT22;10527;52.124;5.196;2023-02-18T15:16:49;12.40;99.90
20732;DHT22;10527;52.124;5.196;2023-02-18T15:19:20;12.30;99.90
20732;DHT22;10527;52.124;5.196;2023-02-18T15:21:50;12.30;99.90
20732;DHT22;10527;52.124;5.196;2023-02-18T15:27:10;12.30;99.90
20732;DHT22;10527;52.124;5.196;2023-02-18T15:29:39;12.30;99.90
20732;DHT22;10527;52.124;5.196;2023-02-18T15:32:19;12.30;99.90
20732;DHT22;10527;52.124;5.196;2023-02-18T15:34:51;12.20;99.90
20732;DHT22;10527;52.124;5.196;2023-02-18T15:37:23;12.20;99.90
20732;DHT22;10527;52.124;5.196;2023-02-18T15:39:50;12.20;99.90
20732;DHT22;10527;52.124;5.196;2023-02-18T15:42:32;12.10;99.90
20732;DHT22;10527;52.124;5.196;2023-02-18T15:47:48;12.10;99.90
20732;DHT22;10527;52.124;5.196;2023-02-18T15:50:27;12.10;99.90
20732;DHT22;10527;52.124;5.196;2023-02-18T15:52:59;12.00;99.90
20732;DHT22;10527;52.124;5.196;2023-02-18T15:55:39;11.90;99.90
20732;DHT22;10527;52.124;5.196;2023-02-18T15:58:13;11.90;99.90
20732;DHT22;10527;52.124;5.196;2023-02-18T16:00:47;12.00;99.90
20732;DHT22;10527;52.124;5.196;2023-02-18T16:03:25;11.90;99.90
20732;DHT22;10527;52.124;5.196;2023-02-18T16:06:29;11.90;99.90
20732;DHT22;10527;52.124;5.196;2023-02-18T16:11:56;11.80;99.90
20732;DHT22;10527;52.124;5.196;2023-02-18T16:14:28;11.80;99.90
20732;DHT22;10527;52.124;5.196;2023-02-18T16:22:53;11.70;99.90
20732;DHT22;10527;52.124;5.196;2023-02-18T16:25:22;11.60;99.90
20732;DHT22;10527;52.124;5.196;2023-02-18T16:28:03;11.70;99.90
20732;DHT22;10527;52.124;5.196;2023-02-18T16:30:40;11.60;99.90
20732;DHT22;10527;52.124;5.196;2023-02-18T16:33:07;11.60;99.90
20732;DHT22;10527;52.124;5.196;2023-02-18T16:35:34;11.60;99.90
20732;DHT22;10527;52.124;5.196;2023-02-18T16:38:21;11.60;99.90
20732;DHT22;10527;52.124;5.196;2023-02-18T16:40:52;11.60;99.90
20732;DHT22;10527;52.124;5.196;2023-02-18T16:43:22;11.60;99.90
20732;DHT22;10527;52.124;5.196;2023-02-18T16:45:56;11.60;99.90
20732;DHT22;10527;52.124;5.196;2023-02-18T16:48:39;11.60;99.90
20732;DHT22;10527;52.124;5.196;2023-02-18T16:53:52;11.50;99.90
20732;DHT22;10527;52.124;5.196;2023-02-18T16:56:21;11.50;99.90
20732;DHT22;10527;52.124;5.196;2023-02-18T16:58:49;11.50;99.90
20732;DHT22;10527;52.124;5.196;2023-02-18T17:01:27;11.50;99.90
20732;DHT22;10527;52.124;5.196;2023-02-18T17:04:03;11.30;99.90
20732;DHT22;10527;52.124;5.196;2023-02-18T17:06:31;11.30;99.90
20732;DHT22;10527;52.124;5.196;2023-02-18T17:08:59;11.40;99.90
20732;DHT22;10527;52.124;5.196;2023-02-18T17:11:32;11.40;99.90
20732;DHT22;10527;52.124;5.196;2023-02-18T17:14:00;11.30;99.90
20732;DHT22;10527;52.124;5.196;2023-02-18T17:16:30;11.30;99.90
20732;DHT22;10527;52.124;5.196;2023-02-18T17:18:57;11.30;99.90
20732;DHT22;10527;52.124;5.196;2023-02-18T17:21:25;11.20;99.90
20732;DHT22;10527;52.124;5.196;2023-02-18T17:23:52;11.20;99.90
20732;DHT22;10527;52.124;5.196;2023-02-18T17:26:27;11.10;99.90
20732;DHT22;10527;52.124;5.196;2023-02-18T17:29:01;11.10;99.90
20732;DHT22;10527;52.124;5.196;2023-02-18T17:31:33;11.10;99.90
20732;DHT22;10527;52.124;5.196;2023-02-18T17:34:13;11.10;99.90
20732;DHT22;10527;52.124;5.196;2023-02-18T17:36:52;11.00;99.90
20732;DHT22;10527;52.124;5.196;2023-02-18T17:39:20;11.00;99.90
20732;DHT22;10527;52.124;5.196;2023-02-18T17:41:47;11.00;99.90
20732;DHT22;10527;52.124;5.196;2023-02-18T17:44:14;11.00;99.90
20732;DHT22;10527;52.124;5.196;2023-02-18T17:46:43;11.10;99.90
20732;DHT22;10527;52.124;5.196;2023-02-18T17:49:10;11.00;99.90
20732;DHT22;10527;52.124;5.196;2023-02-18T17:51:40;11.00;99.90
20732;DHT22;10527;52.124;5.196;2023-02-18T17:54:16;11.00;99.90
20732;DHT22;10527;52.124;5.196;2023-02-18T17:56:47;11.00;99.90
20732;DHT22;10527;52.124;5.196;2023-02-18T17:59:14;10.90;99.90
20732;DHT22;10527;52.124;5.196;2023-02-18T18:01:44;11.00;99.90
20732;DHT22;10527;52.124;5.196;2023-02-18T18:04:16;11.00;99.90
20732;DHT22;10527;52.124;5.196;2023-02-18T18:06:44;10.90;99.90
20732;DHT22;10527;52.124;5.196;2023-02-18T18:09:12;10.90;99.90
20732;DHT22;10527;52.124;5.196;2023-02-18T18:11:39;10.80;99.90
20732;DHT22;10527;52.124;5.196;2023-02-18T18:14:06;10.90;99.90
20732;DHT22;10527;52.124;5.196;2023-02-18T18:16:34;10.80;99.90
20732;DHT22;10527;52.124;5.196;2023-02-18T18:19:01;10.70;99.90
20732;DHT22;10527;52.124;5.196;2023-02-18T18:21:31;10.70;99.90
20732;DHT22;10527;52.124;5.196;2023-02-18T18:24:00;10.70;99.90
20732;DHT22;10527;52.124;5.196;2023-02-18T18:26:28;10.70;99.90
20732;DHT22;10527;52.124;5.196;2023-02-18T18:28:56;10.60;99.90
20732;DHT22;10527;52.124;5.196;2023-02-18T18:31:22;10.60;99.90
20732;DHT22;10527;52.124;5.196;2023-02-18T18:33:50;10.60;99.90
20732;DHT22;10527;52.124;5.196;2023-02-18T18:36:20;10.60;99.90
20732;DHT22;10527;52.124;5.196;2023-02-18T18:38:49;10.70;99.90